Time,TemperatureF,DewpointF,PressureIn,WindDirection,WindDirectionDegrees,WindSpeedMPH,WindSpeedGustMPH,Humidity,HourlyPrecipIn,Conditions,Clouds,dailyrainin,SolarRadiationWatts/m^2,SoftwareType,DateUTC
2013-03-25 00:02:00,43.0,40.0,-100.00,WNW,291,7.0,12.0,90,0.00,,,0.49,23.000000,,2013-03-25 00:02:00,
2013-03-25 01:11:00,42.0,41.0,-100.00,East,83,4.0,14.0,96,-99.99,,,0.83,0.000000,,2013-03-25 01:11:00,
2013-03-25 01:42:00,42.0,41.0,-100.00,East,83,4.0,14.0,96,-99.99,,,0.83,0.000000,,2013-03-25 01:42:00,
2013-03-25 01:53:00,42.0,41.0,-100.00,East,83,4.0,14.0,96,-99.99,,,0.83,0.000000,,2013-03-25 01:53:00,
2013-03-25 02:02:00,42.0,41.0,-100.00,East,83,4.0,14.0,96,-99.99,,,0.83,0.000000,,2013-03-25 02:02:00,
2013-03-25 02:11:00,38.0,36.0,-100.00,ENE,69,3.0,14.0,93,0.09,,,0.92,0.000000,,2013-03-25 02:11:00,
2013-03-25 02:43:00,38.0,36.0,-100.00,ENE,69,3.0,14.0,93,0.09,,,0.92,0.000000,,2013-03-25 02:43:00,
2013-03-25 02:52:00,38.0,36.0,-100.00,ENE,69,3.0,14.0,93,0.09,,,0.92,0.000000,,2013-03-25 02:52:00,
2013-03-25 03:03:00,38.0,36.0,-100.00,ENE,69,3.0,14.0,93,0.09,,,0.92,0.000000,,2013-03-25 03:03:00,
2013-03-25 03:11:00,38.0,37.0,-100.00,West,274,2.0,4.0,96,0.00,,,0.92,0.000000,,2013-03-25 03:11:00,
2013-03-25 03:34:00,38.0,37.0,-100.00,West,274,2.0,4.0,96,0.00,,,0.92,0.000000,,2013-03-25 03:34:00,
2013-03-25 03:43:00,38.0,37.0,-100.00,West,274,2.0,4.0,96,0.00,,,0.92,0.000000,,2013-03-25 03:43:00,
2013-03-25 03:53:00,38.0,37.0,-100.00,West,274,2.0,4.0,96,0.00,,,0.92,0.000000,,2013-03-25 03:53:00,
2013-03-25 04:03:00,38.0,37.0,-100.00,West,274,2.0,4.0,96,0.00,,,0.92,0.000000,,2013-03-25 04:03:00,
2013-03-25 04:11:00,37.0,35.0,-100.00,WSW,242,2.0,6.0,94,0.00,,,0.92,0.000000,,2013-03-25 04:11:00,
2013-03-25 04:43:00,37.0,35.0,-100.00,WSW,242,2.0,6.0,94,0.00,,,0.92,0.000000,,2013-03-25 04:43:00,
2013-03-25 04:52:00,37.0,35.0,-100.00,WSW,242,2.0,6.0,94,0.00,,,0.92,0.000000,,2013-03-25 04:52:00,
2013-03-25 05:03:00,37.0,35.0,-100.00,WSW,242,2.0,6.0,94,0.00,,,0.92,0.000000,,2013-03-25 05:03:00,
2013-03-25 05:11:00,34.0,32.0,-100.00,ENE,74,4.0,13.0,93,0.11,,,1.03,0.000000,,2013-03-25 05:11:00,
2013-03-25 05:33:00,34.0,32.0,-100.00,ENE,74,4.0,13.0,93,0.11,,,1.03,0.000000,,2013-03-25 05:33:00,
2013-03-25 05:42:00,34.0,32.0,-100.00,ENE,74,4.0,13.0,93,0.11,,,1.03,0.000000,,2013-03-25 05:42:00,
2013-03-25 05:53:00,34.0,32.0,-100.00,ENE,74,4.0,13.0,93,0.11,,,1.03,0.000000,,2013-03-25 05:53:00,
2013-03-25 06:02:00,34.0,32.0,-100.00,ENE,74,4.0,13.0,93,0.11,,,1.03,0.000000,,2013-03-25 06:02:00,
2013-03-25 06:11:00,34.0,32.0,-100.00,NE,48,5.0,12.0,94,0.03,,,1.06,0.000000,,2013-03-25 06:11:00,
2013-03-25 06:33:00,34.0,32.0,-100.00,NE,48,5.0,12.0,94,0.03,,,1.06,0.000000,,2013-03-25 06:33:00,
2013-03-25 06:42:00,34.0,32.0,-100.00,NE,48,5.0,12.0,94,0.03,,,1.06,0.000000,,2013-03-25 06:42:00,
2013-03-25 06:53:00,34.0,32.0,-100.00,NE,48,5.0,12.0,94,0.03,,,1.06,0.000000,,2013-03-25 06:53:00,
2013-03-25 07:02:00,34.0,32.0,-100.00,NE,48,5.0,12.0,94,0.03,,,1.06,0.000000,,2013-03-25 07:02:00,
2013-03-25 07:11:00,33.0,30.0,-100.00,ENE,64,7.0,15.0,89,0.00,,,1.06,0.000000,,2013-03-25 07:11:00,
2013-03-25 07:42:00,33.0,30.0,-100.00,ENE,64,7.0,15.0,89,0.00,,,1.06,0.000000,,2013-03-25 07:42:00,
2013-03-25 07:53:00,33.0,30.0,-100.00,ENE,64,7.0,15.0,89,0.00,,,1.06,0.000000,,2013-03-25 07:53:00,
2013-03-25 08:03:00,33.0,30.0,-100.00,ENE,64,7.0,15.0,89,0.00,,,1.06,0.000000,,2013-03-25 08:03:00,
2013-03-25 08:11:00,32.0,28.0,-100.00,ENE,59,6.0,15.0,84,0.00,,,1.06,0.000000,,2013-03-25 08:11:00,
2013-03-25 08:43:00,32.0,28.0,-100.00,ENE,59,6.0,15.0,84,0.00,,,1.06,0.000000,,2013-03-25 08:43:00,
2013-03-25 08:52:00,32.0,28.0,-100.00,ENE,59,6.0,15.0,84,0.00,,,1.06,0.000000,,2013-03-25 08:52:00,
2013-03-25 09:02:00,32.0,28.0,-100.00,ENE,59,6.0,15.0,84,0.00,,,1.06,0.000000,,2013-03-25 09:02:00,
2013-03-25 09:11:00,30.0,27.0,-100.00,NE,48,5.0,16.0,89,0.00,,,1.06,0.000000,,2013-03-25 09:11:00,
2013-03-25 09:33:00,30.0,27.0,-100.00,NE,48,5.0,16.0,89,0.00,,,1.06,0.000000,,2013-03-25 09:33:00,
2013-03-25 09:43:00,30.0,27.0,-100.00,NE,48,5.0,16.0,89,0.00,,,1.06,0.000000,,2013-03-25 09:43:00,
2013-03-25 09:53:00,30.0,27.0,-100.00,NE,48,5.0,16.0,89,0.00,,,1.06,0.000000,,2013-03-25 09:53:00,
2013-03-25 10:03:00,30.0,27.0,-100.00,NE,48,5.0,16.0,89,0.00,,,1.06,0.000000,,2013-03-25 10:03:00,
2013-03-25 10:11:00,28.0,26.0,-100.00,NE,40,6.0,14.0,91,0.00,,,0.97,0.000000,,2013-03-25 10:11:00,
2013-03-25 10:43:00,28.0,26.0,-100.00,NE,40,6.0,14.0,91,0.00,,,0.97,0.000000,,2013-03-25 10:43:00,
2013-03-25 10:54:00,28.0,26.0,-100.00,NE,40,6.0,14.0,91,0.00,,,0.97,0.000000,,2013-03-25 10:54:00,
2013-03-25 11:03:00,28.0,26.0,-100.00,NE,40,6.0,14.0,91,0.00,,,0.97,0.000000,,2013-03-25 11:03:00,
2013-03-25 11:11:00,27.0,24.0,-100.00,ENE,61,6.0,13.0,89,0.00,,,0.92,0.000000,,2013-03-25 11:11:00,
2013-03-25 11:33:00,27.0,24.0,-100.00,ENE,61,6.0,13.0,89,0.00,,,0.92,0.000000,,2013-03-25 11:33:00,
2013-03-25 11:43:00,27.0,24.0,-100.00,ENE,61,6.0,13.0,89,0.00,,,0.92,0.000000,,2013-03-25 11:43:00,
2013-03-25 11:53:00,27.0,24.0,-100.00,ENE,61,6.0,13.0,89,0.00,,,0.92,0.000000,,2013-03-25 11:53:00,
2013-03-25 12:03:00,27.0,24.0,-100.00,ENE,61,6.0,13.0,89,0.00,,,0.92,0.000000,,2013-03-25 12:03:00,
2013-03-25 12:11:00,27.0,25.0,-100.00,ENE,63,6.0,12.0,91,0.00,,,0.84,6.000000,,2013-03-25 12:11:00,
2013-03-25 12:33:00,27.0,25.0,-100.00,ENE,63,6.0,12.0,91,0.00,,,0.84,6.000000,,2013-03-25 12:33:00,
2013-03-25 12:43:00,27.0,25.0,-100.00,ENE,63,6.0,12.0,91,0.00,,,0.84,6.000000,,2013-03-25 12:43:00,
2013-03-25 12:54:00,27.0,25.0,-100.00,ENE,63,6.0,12.0,91,0.00,,,0.84,6.000000,,2013-03-25 12:54:00,
2013-03-25 13:03:00,27.0,25.0,-100.00,ENE,63,6.0,12.0,91,0.00,,,0.84,6.000000,,2013-03-25 13:03:00,
2013-03-25 13:11:00,26.0,24.0,-100.00,East,85,4.0,10.0,93,0.00,,,0.78,18.000000,,2013-03-25 13:11:00,
2013-03-25 13:32:00,26.0,24.0,-100.00,East,85,4.0,10.0,93,0.00,,,0.78,18.000000,,2013-03-25 13:32:00,
2013-03-25 13:43:00,26.0,24.0,-100.00,East,85,4.0,10.0,93,0.00,,,0.78,18.000000,,2013-03-25 13:43:00,
2013-03-25 13:53:00,26.0,24.0,-100.00,East,85,4.0,10.0,93,0.00,,,0.78,18.000000,,2013-03-25 13:53:00,
2013-03-25 14:03:00,26.0,24.0,-100.00,East,85,4.0,10.0,93,0.00,,,0.78,18.000000,,2013-03-25 14:03:00,
2013-03-25 14:11:00,28.0,26.0,-100.00,ENE,71,4.0,17.0,92,0.00,,,0.72,110.000000,,2013-03-25 14:11:00,
2013-03-25 14:33:00,28.0,26.0,-100.00,ENE,71,4.0,17.0,92,0.00,,,0.72,110.000000,,2013-03-25 14:33:00,
2013-03-25 14:43:00,28.0,26.0,-100.00,ENE,71,4.0,17.0,92,0.00,,,0.72,110.000000,,2013-03-25 14:43:00,
2013-03-25 14:53:00,28.0,26.0,-100.00,ENE,71,4.0,17.0,92,0.00,,,0.72,110.000000,,2013-03-25 14:53:00,
2013-03-25 15:03:00,28.0,26.0,-100.00,ENE,71,4.0,17.0,92,0.00,,,0.72,110.000000,,2013-03-25 15:03:00,
2013-03-25 15:11:00,30.0,27.0,-100.00,ENE,62,5.0,15.0,87,0.00,,,0.71,212.000000,,2013-03-25 15:11:00,
2013-03-25 15:43:00,30.0,27.0,-100.00,ENE,62,5.0,15.0,87,0.00,,,0.71,212.000000,,2013-03-25 15:43:00,
2013-03-25 15:54:00,30.0,27.0,-100.00,ENE,62,5.0,15.0,87,0.00,,,0.71,212.000000,,2013-03-25 15:54:00,
2013-03-25 16:03:00,30.0,27.0,-100.00,ENE,62,5.0,15.0,87,0.00,,,0.71,212.000000,,2013-03-25 16:03:00,
2013-03-25 16:11:00,31.0,26.0,-100.00,ENE,62,6.0,15.0,82,0.00,,,0.66,340.000000,,2013-03-25 16:11:00,
2013-03-25 16:44:00,31.0,26.0,-100.00,ENE,62,6.0,15.0,82,0.00,,,0.66,340.000000,,2013-03-25 16:44:00,
2013-03-25 16:53:00,31.0,26.0,-100.00,ENE,62,6.0,15.0,82,0.00,,,0.66,340.000000,,2013-03-25 16:53:00,
2013-03-25 17:03:00,31.0,26.0,-100.00,ENE,62,6.0,15.0,82,0.00,,,0.66,340.000000,,2013-03-25 17:03:00,
2013-03-25 17:11:00,33.0,26.0,-100.00,NE,55,6.0,15.0,75,0.12,,,0.72,569.000000,,2013-03-25 17:11:00,
2013-03-25 17:43:00,33.0,26.0,-100.00,NE,55,6.0,15.0,75,0.12,,,0.72,569.000000,,2013-03-25 17:43:00,
2013-03-25 17:53:00,33.0,26.0,-100.00,NE,55,6.0,15.0,75,0.12,,,0.72,569.000000,,2013-03-25 17:53:00,
2013-03-25 18:04:00,33.0,26.0,-100.00,NE,55,6.0,15.0,75,0.12,,,0.72,569.000000,,2013-03-25 18:04:00,
2013-03-25 18:11:00,34.0,29.0,-100.00,ENE,74,9.0,18.0,82,0.07,,,0.77,700.000000,,2013-03-25 18:11:00,
2013-03-25 18:43:00,34.0,29.0,-100.00,ENE,74,9.0,18.0,82,0.07,,,0.77,700.000000,,2013-03-25 18:43:00,
2013-03-25 18:53:00,34.0,29.0,-100.00,ENE,74,9.0,18.0,82,0.07,,,0.77,700.000000,,2013-03-25 18:53:00,
2013-03-25 19:03:00,34.0,29.0,-100.00,ENE,74,9.0,18.0,82,0.07,,,0.77,700.000000,,2013-03-25 19:03:00,
2013-03-25 19:11:00,33.0,21.0,-100.00,East,80,10.0,21.0,60,0.00,,,0.77,622.000000,,2013-03-25 19:11:00,
2013-03-25 19:43:00,33.0,21.0,-100.00,East,80,10.0,21.0,60,0.00,,,0.77,622.000000,,2013-03-25 19:43:00,
2013-03-25 19:53:00,33.0,21.0,-100.00,East,80,10.0,21.0,60,0.00,,,0.77,622.000000,,2013-03-25 19:53:00,
2013-03-25 20:02:00,33.0,21.0,-100.00,East,80,10.0,21.0,60,0.00,,,0.77,622.000000,,2013-03-25 20:02:00,
2013-03-25 20:11:00,30.0,24.0,-100.00,ENE,69,5.0,17.0,77,0.00,,,0.76,319.000000,,2013-03-25 20:11:00,
2013-03-25 20:42:00,30.0,24.0,-100.00,ENE,69,5.0,17.0,77,0.00,,,0.76,319.000000,,2013-03-25 20:42:00,
2013-03-25 20:52:00,30.0,24.0,-100.00,ENE,69,5.0,17.0,77,0.00,,,0.76,319.000000,,2013-03-25 20:52:00,
2013-03-25 21:03:00,30.0,24.0,-100.00,ENE,69,5.0,17.0,77,0.00,,,0.76,319.000000,,2013-03-25 21:03:00,
2013-03-25 21:11:00,30.0,23.0,-100.00,ENE,65,7.0,16.0,76,0.02,,,0.78,325.000000,,2013-03-25 21:11:00,
2013-03-25 21:33:00,30.0,23.0,-100.00,ENE,65,7.0,16.0,76,0.02,,,0.78,325.000000,,2013-03-25 21:33:00,
2013-03-25 21:43:00,30.0,23.0,-100.00,ENE,65,7.0,16.0,76,0.02,,,0.78,325.000000,,2013-03-25 21:43:00,
2013-03-25 21:52:00,30.0,23.0,-100.00,ENE,65,7.0,16.0,76,0.02,,,0.78,325.000000,,2013-03-25 21:52:00,
2013-03-25 22:03:00,30.0,23.0,-100.00,ENE,65,7.0,16.0,76,0.02,,,0.78,325.000000,,2013-03-25 22:03:00,
2013-03-25 22:11:00,29.0,24.0,-100.00,ENE,75,7.0,16.0,82,0.00,,,0.78,149.000000,,2013-03-25 22:11:00,
2013-03-25 22:43:00,29.0,24.0,-100.00,ENE,75,7.0,16.0,82,0.00,,,0.78,149.000000,,2013-03-25 22:43:00,
2013-03-25 22:52:00,29.0,24.0,-100.00,ENE,75,7.0,16.0,82,0.00,,,0.78,149.000000,,2013-03-25 22:52:00,
2013-03-25 23:03:00,29.0,24.0,-100.00,ENE,75,7.0,16.0,82,0.00,,,0.78,149.000000,,2013-03-25 23:03:00,
2013-03-25 23:11:00,28.0,25.0,-100.00,ENE,73,7.0,15.0,87,0.00,,,0.78,75.000000,,2013-03-25 23:11:00,
2013-03-25 23:43:00,28.0,25.0,-100.00,ENE,73,7.0,15.0,87,0.00,,,0.78,75.000000,,2013-03-25 23:43:00,
2013-03-25 23:53:00,28.0,25.0,-100.00,ENE,73,7.0,15.0,87,0.00,,,0.78,75.000000,,2013-03-25 23:53:00,